createdAt,value
2022-10-28T00:02:40.087Z,0.80
2022-10-28T00:05:41.607Z,1.02
2022-10-28T00:08:43.723Z,1.02
2022-10-28T00:11:45.095Z,1.00
2022-10-28T00:17:47.767Z,0.82
2022-10-28T00:20:52.394Z,1.00
2022-10-28T00:23:54.900Z,0.80
2022-10-28T00:26:56.342Z,0.77
2022-10-28T00:33:02.209Z,0.90
2022-10-28T00:36:09.498Z,1.00
2022-10-28T00:39:12.898Z,0.82
2022-10-28T00:42:17.911Z,1.00
2022-10-28T00:45:19.456Z,0.82
2022-10-28T00:48:20.881Z,0.95
2022-10-28T00:54:30.283Z,1.00
2022-10-28T00:57:34.593Z,1.08
2022-10-28T01:00:35.962Z,1.10
2022-10-28T01:06:40.262Z,0.90
2022-10-28T01:09:43.034Z,0.90
2022-10-28T01:12:58.180Z,0.82
2022-10-28T01:16:06.350Z,0.90
2022-10-28T01:19:28.206Z,0.80
2022-10-28T01:22:36.703Z,0.70
2022-10-28T01:26:06.411Z,0.57
2022-10-28T01:29:32.853Z,0.90
2022-10-28T01:32:43.804Z,0.77
2022-10-28T01:35:53.246Z,0.80
2022-10-28T01:39:01.097Z,0.50
2022-10-28T01:42:13.509Z,0.85
2022-10-28T01:45:18.683Z,0.68
2022-10-28T01:48:25.377Z,0.60
2022-10-28T01:51:31.500Z,0.90
2022-10-28T01:54:34.689Z,0.70
2022-10-28T01:57:40.245Z,0.68
2022-10-28T02:00:43.931Z,0.93
2022-10-28T02:03:47.409Z,0.60
2022-10-28T02:06:52.719Z,0.70
2022-10-28T02:10:03.271Z,0.50
2022-10-28T02:13:11.426Z,0.70
2022-10-28T02:16:22.240Z,0.80
2022-10-28T02:19:35.291Z,0.80
2022-10-28T02:22:45.310Z,0.70
2022-10-28T02:25:54.563Z,0.60
2022-10-28T02:29:02.051Z,0.50
2022-10-28T02:32:07.581Z,0.60
2022-10-28T02:35:14.996Z,0.80
2022-10-28T02:38:20.541Z,0.60
2022-10-28T02:41:26.295Z,0.63
2022-10-28T02:44:30.719Z,0.75
2022-10-28T02:47:36.877Z,0.70
2022-10-28T02:50:43.216Z,0.60
2022-10-28T02:53:57.898Z,0.85
2022-10-28T02:57:03.638Z,0.75
2022-10-28T03:00:08.964Z,0.52
2022-10-28T03:03:10.648Z,0.80
2022-10-28T03:06:12.639Z,0.60
2022-10-28T03:09:17.166Z,0.65
2022-10-28T03:12:18.568Z,0.80
2022-10-28T03:18:21.317Z,0.60
2022-10-28T03:24:24.656Z,0.90
2022-10-28T03:30:27.481Z,0.70
2022-10-28T03:36:30.824Z,0.77
2022-10-28T03:39:35.540Z,0.65
2022-10-28T03:42:38.925Z,0.80
2022-10-28T03:45:42.582Z,0.82
2022-10-28T03:51:45.824Z,0.90
2022-10-28T03:54:47.182Z,0.80
2022-10-28T04:00:54.087Z,0.80
2022-10-28T04:03:55.530Z,0.80
2022-10-28T04:16:01.884Z,0.80
2022-10-28T04:22:05.204Z,0.93
2022-10-28T04:25:07.131Z,0.80
2022-10-28T04:28:08.826Z,0.73
2022-10-28T04:31:11.357Z,0.70
2022-10-28T04:34:12.927Z,1.00
2022-10-28T04:37:18.319Z,0.80
2022-10-28T04:40:22.182Z,0.75
2022-10-28T04:43:23.789Z,0.63
2022-10-28T04:46:25.182Z,0.80
2022-10-28T04:52:28.495Z,0.60
2022-10-28T04:55:30.082Z,0.77
2022-10-28T04:58:31.695Z,0.70
2022-10-28T05:01:33.110Z,0.77
2022-10-28T05:04:34.622Z,0.80
2022-10-28T05:10:38.922Z,0.82
2022-10-28T05:13:40.440Z,0.82
2022-10-28T05:16:41.920Z,0.80
2022-10-28T05:22:47.221Z,0.90
2022-10-28T05:25:48.971Z,0.80
2022-10-28T05:28:50.879Z,0.80
2022-10-28T05:31:52.360Z,0.80
2022-10-28T05:34:53.857Z,0.88
2022-10-28T05:40:57.314Z,0.70
2022-10-28T05:47:00.054Z,0.80
2022-10-28T05:53:03.587Z,0.77
2022-10-28T05:56:05.220Z,0.88
2022-10-28T05:59:06.832Z,0.73
2022-10-28T06:02:13.603Z,0.63
2022-10-28T06:05:15.468Z,0.80
2022-10-28T06:08:17.742Z,0.85
2022-10-28T06:11:17.741Z,0.95
2022-10-28T06:14:19.159Z,1.00
2022-10-28T06:20:21.979Z,0.60
2022-10-28T06:23:26.368Z,0.60
2022-10-28T06:26:27.753Z,0.73
2022-10-28T06:32:31.693Z,0.90
2022-10-28T06:35:33.153Z,0.65
2022-10-28T06:41:36.495Z,0.70
2022-10-28T06:44:38.001Z,0.63
2022-10-28T06:50:43.320Z,0.57
2022-10-28T06:56:50.116Z,0.60
2022-10-28T06:59:51.697Z,0.60
2022-10-28T07:02:54.070Z,0.60
2022-10-28T07:05:59.635Z,0.50
2022-10-28T07:09:01.737Z,0.65
2022-10-28T07:12:05.467Z,0.60
2022-10-28T07:15:09.074Z,0.55
2022-10-28T07:18:10.478Z,0.60
2022-10-28T07:24:15.364Z,0.40
2022-10-28T07:27:16.799Z,0.50
2022-10-28T07:33:20.206Z,0.50
2022-10-28T07:36:21.948Z,0.70
2022-10-28T07:39:24.173Z,0.60
2022-10-28T07:42:27.714Z,0.60
2022-10-28T07:45:31.065Z,0.70
2022-10-28T07:48:32.881Z,0.65
2022-10-28T07:51:34.508Z,0.85
2022-10-28T07:54:36.569Z,0.57
2022-10-28T07:57:38.036Z,0.70
2022-10-28T08:00:40.266Z,0.60
2022-10-28T08:03:42.164Z,0.50
2022-10-28T08:06:43.761Z,0.80
2022-10-28T08:09:45.864Z,0.40
2022-10-28T08:12:47.289Z,0.70
2022-10-28T08:18:52.791Z,0.60
2022-10-28T08:21:54.265Z,0.70
2022-10-28T08:24:56.285Z,0.50
2022-10-28T08:27:57.776Z,0.50
2022-10-28T08:31:08.513Z,0.60
2022-10-28T08:34:12.866Z,0.40
2022-10-28T08:37:15.375Z,0.52
2022-10-28T08:40:24.550Z,0.43
2022-10-28T08:43:46.184Z,0.40
2022-10-28T08:47:09.426Z,0.47
2022-10-28T08:50:15.224Z,0.40
2022-10-28T08:53:20.899Z,0.60
2022-10-28T08:56:30.203Z,0.40
2022-10-28T08:59:38.303Z,0.57
2022-10-28T09:02:50.585Z,0.40
2022-10-28T09:05:59.789Z,0.38
2022-10-28T09:09:01.245Z,0.40
2022-10-28T09:12:17.036Z,0.40
2022-10-28T09:15:31.409Z,0.32
2022-10-28T09:18:49.482Z,0.40
2022-10-28T09:22:07.424Z,0.40
2022-10-28T09:25:22.589Z,0.47
2022-10-28T09:28:42.350Z,0.55
2022-10-28T09:31:47.651Z,0.57
2022-10-28T09:34:53.488Z,0.40
2022-10-28T09:38:01.786Z,0.68
2022-10-28T09:41:07.389Z,0.30
2022-10-28T09:44:15.205Z,0.40
2022-10-28T09:47:21.681Z,0.50
2022-10-28T09:50:28.074Z,0.40
2022-10-28T09:53:40.240Z,0.40
2022-10-28T09:56:41.791Z,0.57
2022-10-28T09:59:44.141Z,0.30
2022-10-28T10:02:45.671Z,0.40
2022-10-28T10:05:51.732Z,0.40
2022-10-28T10:08:54.934Z,0.45
2022-10-28T10:12:01.652Z,0.30
2022-10-28T10:15:06.450Z,0.30
2022-10-28T10:18:16.624Z,0.25
2022-10-28T10:21:36.907Z,0.30
2022-10-28T10:24:44.579Z,0.32
2022-10-28T10:27:51.193Z,0.35
2022-10-28T10:30:57.037Z,0.22
2022-10-28T10:33:58.694Z,0.20
2022-10-28T10:40:20.778Z,0.30
2022-10-28T10:43:29.133Z,0.20
2022-10-28T10:46:31.225Z,0.20
2022-10-28T10:49:34.362Z,0.25
2022-10-28T10:52:36.099Z,0.20
2022-10-28T10:55:40.384Z,0.20
2022-10-28T10:58:50.831Z,0.30
2022-10-28T11:01:54.653Z,0.35
2022-10-28T11:04:59.064Z,0.25
2022-10-28T11:08:05.907Z,0.10
2022-10-28T11:11:12.557Z,0.40
2022-10-28T11:14:23.969Z,0.20
2022-10-28T11:20:43.147Z,0.20
2022-10-28T11:23:55.437Z,0.20
2022-10-28T11:27:06.132Z,0.20
2022-10-28T11:30:13.765Z,0.20
2022-10-28T11:33:35.428Z,0.17
2022-10-28T11:36:43.436Z,0.28
2022-10-28T11:40:00.655Z,0.30
2022-10-28T11:43:14.353Z,0.30
2022-10-28T11:46:29.957Z,0.30
2022-10-28T11:50:00.885Z,0.43
2022-10-28T11:53:27.382Z,0.28
2022-10-28T11:56:34.874Z,0.20
2022-10-28T12:00:01.998Z,0.20
2022-10-28T12:03:27.591Z,0.30
2022-10-28T12:06:47.724Z,0.30
2022-10-28T12:10:06.210Z,0.22
2022-10-28T12:13:15.666Z,0.30
2022-10-28T12:16:25.534Z,0.43
2022-10-28T12:19:31.984Z,0.30
2022-10-28T12:22:42.579Z,0.30
2022-10-28T12:25:48.655Z,0.17
2022-10-28T12:28:54.592Z,0.20
2022-10-28T12:32:01.199Z,0.17
2022-10-28T12:35:07.422Z,0.20
2022-10-28T12:38:14.653Z,0.20
2022-10-28T12:41:23.282Z,0.20
2022-10-28T12:44:27.403Z,0.17
2022-10-28T12:47:42.105Z,0.20
2022-10-28T12:50:51.328Z,0.20
2022-10-28T12:53:58.012Z,0.20
2022-10-28T12:57:07.513Z,0.25
2022-10-28T13:00:17.755Z,0.10
2022-10-28T13:03:19.255Z,0.10
2022-10-28T13:06:57.462Z,0.20
2022-10-28T13:10:11.475Z,0.20
2022-10-28T13:13:25.797Z,0.20
2022-10-28T13:16:45.579Z,0.20
2022-10-28T13:20:00.010Z,0.20
2022-10-28T13:23:20.299Z,0.10
2022-10-28T13:26:26.395Z,0.13
2022-10-28T13:29:31.753Z,0.15
2022-10-28T13:32:38.709Z,0.20
2022-10-28T13:35:41.225Z,0.20
2022-10-28T13:38:48.409Z,0.00
2022-10-28T13:42:25.230Z,0.25
2022-10-28T13:45:47.572Z,0.20
2022-10-28T13:48:49.061Z,0.20
2022-10-28T13:51:51.477Z,0.15
2022-10-28T13:54:58.339Z,0.20
2022-10-28T13:58:04.531Z,0.38
2022-10-28T14:01:34.703Z,0.57
2022-10-28T14:04:39.567Z,0.40
2022-10-28T14:07:53.054Z,0.40
2022-10-28T14:11:01.270Z,0.20
2022-10-28T14:14:06.492Z,0.28
2022-10-28T14:17:20.183Z,0.30
2022-10-28T14:20:28.663Z,0.30
2022-10-28T14:23:57.396Z,0.25
2022-10-28T14:27:19.907Z,0.22
2022-10-28T14:30:23.325Z,0.10
2022-10-28T14:33:24.731Z,0.10
2022-10-28T14:39:44.750Z,0.70
2022-10-28T14:43:12.059Z,0.60
2022-10-28T14:46:28.990Z,0.30
2022-10-28T14:49:33.530Z,0.50
2022-10-28T14:52:37.082Z,0.35
2022-10-28T14:55:39.065Z,0.30
2022-10-28T14:58:42.540Z,0.30
2022-10-28T15:01:57.758Z,0.30
2022-10-28T15:05:02.522Z,0.20
2022-10-28T15:08:04.631Z,0.10
2022-10-28T15:11:07.074Z,0.20
2022-10-28T15:14:25.311Z,0.10
2022-10-28T15:17:31.204Z,0.20
2022-10-28T15:20:35.234Z,0.20
2022-10-28T15:23:36.671Z,0.20
2022-10-28T15:26:38.145Z,0.30
2022-10-28T15:29:41.897Z,0.30
2022-10-28T15:32:44.189Z,0.30
2022-10-28T15:35:46.648Z,0.30
2022-10-28T15:38:49.552Z,0.20
2022-10-28T15:41:55.592Z,0.10
2022-10-28T15:44:59.054Z,0.30
2022-10-28T15:48:09.602Z,0.20
2022-10-28T15:51:16.107Z,0.40
2022-10-28T15:54:19.225Z,1.05
2022-10-28T15:57:21.675Z,0.70
2022-10-28T16:00:25.142Z,0.50
2022-10-28T16:03:39.700Z,0.60
2022-10-28T16:06:41.205Z,0.30
2022-10-28T16:09:45.683Z,0.40
2022-10-28T16:12:47.211Z,0.40
2022-10-28T16:15:54.036Z,0.30
2022-10-28T16:19:04.813Z,0.30
2022-10-28T16:22:09.974Z,0.25
2022-10-28T16:25:13.896Z,0.15
2022-10-28T16:28:20.991Z,0.30
2022-10-28T16:31:27.537Z,0.10
2022-10-28T16:34:29.778Z,0.20
2022-10-28T16:37:33.578Z,0.20
2022-10-28T16:40:50.956Z,0.20
2022-10-28T16:43:54.973Z,0.20
2022-10-28T16:46:56.457Z,0.30
2022-10-28T16:49:58.614Z,0.20
2022-10-28T16:53:00.227Z,0.30
2022-10-28T16:56:01.895Z,0.40
2022-10-28T16:59:03.541Z,0.40
2022-10-28T17:02:14.996Z,0.30
2022-10-28T17:05:19.595Z,0.35
2022-10-28T17:08:42.132Z,0.40
2022-10-28T17:17:49.139Z,0.35
2022-10-28T17:20:59.887Z,0.25
2022-10-28T17:24:01.542Z,0.30
2022-10-28T17:27:03.489Z,0.20
2022-10-28T17:30:06.026Z,0.20
2022-10-28T17:33:08.439Z,0.20
2022-10-28T17:36:10.475Z,0.30
2022-10-28T17:39:17.018Z,0.30
2022-10-28T17:42:20.160Z,0.20
2022-10-28T17:45:22.246Z,0.30
2022-10-28T17:48:23.687Z,0.30
2022-10-28T17:54:27.814Z,0.20
2022-10-28T17:57:29.295Z,0.30
2022-10-28T18:00:30.723Z,0.28
2022-10-28T18:06:40.818Z,0.30
2022-10-28T18:09:42.418Z,0.40
2022-10-28T18:12:43.777Z,0.40
2022-10-28T18:21:48.914Z,0.50
2022-10-28T18:24:55.910Z,0.40
2022-10-28T18:27:57.464Z,0.40
2022-10-28T18:31:00.999Z,0.43
2022-10-28T18:34:03.192Z,0.60
2022-10-28T18:37:07.575Z,0.40
2022-10-28T18:40:10.774Z,0.40
2022-10-28T18:43:12.154Z,0.30
2022-10-28T18:49:15.322Z,0.40
2022-10-28T18:52:17.327Z,0.38
2022-10-28T18:55:21.901Z,0.22
2022-10-28T18:58:25.682Z,0.32
2022-10-28T19:01:28.343Z,0.40
2022-10-28T19:04:29.959Z,0.50
2022-10-28T19:07:32.170Z,0.40
2022-10-28T19:10:33.750Z,0.40
2022-10-28T19:13:37.134Z,0.47
2022-10-28T19:16:38.513Z,0.30
2022-10-28T19:22:41.804Z,0.45
2022-10-28T19:25:52.645Z,0.40
2022-10-28T19:28:54.431Z,0.45
2022-10-28T19:31:56.026Z,0.47
2022-10-28T19:34:57.465Z,0.38
2022-10-28T19:41:02.357Z,0.30
2022-10-28T19:44:04.205Z,0.63
2022-10-28T19:47:06.596Z,0.50
2022-10-28T19:50:08.869Z,0.40
2022-10-28T19:53:10.850Z,0.60
2022-10-28T19:56:17.971Z,0.40
2022-10-28T19:59:21.076Z,0.60
2022-10-28T20:02:22.646Z,0.43
2022-10-28T20:05:24.094Z,0.43
2022-10-28T20:11:30.849Z,0.65
2022-10-28T20:14:33.327Z,0.40
2022-10-28T20:17:34.769Z,0.30
2022-10-28T20:23:38.129Z,0.35
2022-10-28T20:26:39.792Z,0.38
2022-10-28T20:29:41.310Z,0.35
2022-10-28T20:32:42.732Z,0.50
2022-10-28T20:35:44.122Z,0.47
2022-10-28T20:41:50.255Z,0.40
2022-10-28T20:44:51.737Z,0.50
2022-10-28T20:50:56.087Z,0.40
2022-10-28T20:53:58.740Z,0.45
2022-10-28T20:57:00.443Z,0.50
2022-10-28T21:00:07.206Z,0.45
2022-10-28T21:03:10.070Z,0.40
2022-10-28T21:09:15.863Z,0.50
2022-10-28T21:12:17.609Z,0.28
2022-10-28T21:15:19.104Z,0.40
2022-10-28T21:18:20.692Z,0.50
2022-10-28T21:21:23.649Z,0.50
2022-10-28T21:24:25.635Z,0.30
2022-10-28T21:27:27.268Z,0.40
2022-10-28T21:30:28.808Z,0.40
2022-10-28T21:33:30.572Z,0.40
2022-10-28T21:36:32.003Z,0.45
2022-10-28T21:42:36.614Z,0.30
2022-10-28T21:45:37.979Z,0.40
2022-10-28T21:51:41.466Z,0.43
2022-10-28T21:54:43.445Z,0.32
2022-10-28T21:57:48.086Z,0.35
2022-10-28T22:00:49.562Z,0.30
2022-10-28T22:03:54.239Z,0.40
2022-10-28T22:06:55.804Z,0.30
2022-10-28T22:09:58.133Z,0.35
2022-10-28T22:12:59.644Z,0.30
2022-10-28T22:16:03.215Z,0.40
2022-10-28T22:19:06.651Z,0.30
2022-10-28T22:22:08.062Z,0.30
2022-10-28T22:28:12.548Z,0.47
2022-10-28T22:31:16.139Z,0.47
2022-10-28T22:34:17.549Z,0.50
2022-10-28T22:40:20.753Z,0.47
2022-10-28T22:43:25.232Z,0.60
2022-10-28T22:46:29.061Z,0.45
2022-10-28T22:49:30.408Z,0.40
2022-10-28T22:55:33.707Z,0.40
2022-10-28T22:58:35.353Z,0.60
2022-10-28T23:01:37.688Z,0.57
2022-10-28T23:04:39.180Z,0.38
2022-10-28T23:10:42.417Z,0.40
2022-10-28T23:13:43.989Z,0.50
2022-10-28T23:16:47.713Z,0.50
2022-10-28T23:19:49.074Z,0.45
2022-10-28T23:25:53.360Z,0.40
2022-10-28T23:28:56.379Z,0.40
2022-10-28T23:31:58.053Z,0.40
2022-10-28T23:34:59.464Z,0.40
2022-10-28T23:41:04.583Z,0.40
2022-10-28T23:44:05.948Z,0.47
2022-10-28T23:50:10.180Z,0.43
2022-10-28T23:53:11.700Z,0.30
2022-10-28T23:56:13.666Z,0.60
2022-10-28T23:59:15.349Z,0.40
